createdAt,value
2022-11-15T00:00:16.402Z,0.37
2022-11-15T00:05:37.152Z,0.37
2022-11-15T00:11:02.108Z,1.27
2022-11-15T00:16:23.030Z,6.27
2022-11-15T00:21:43.208Z,0.20
2022-11-15T00:27:07.606Z,3.73
2022-11-15T00:32:31.828Z,0.23
2022-11-15T00:37:53.775Z,1.23
2022-11-15T00:43:14.215Z,1.03
2022-11-15T00:48:34.456Z,2.47
2022-11-15T00:53:54.641Z,2.53
2022-11-15T00:59:14.683Z,4.93
2022-11-15T01:04:35.293Z,2.93
2022-11-15T01:09:55.450Z,3.40
2022-11-15T01:15:16.280Z,1.80
2022-11-15T01:20:43.897Z,1.27
2022-11-15T01:26:07.209Z,1.70
2022-11-15T01:31:27.471Z,0.40
2022-11-15T01:36:48.014Z,2.20
2022-11-15T01:42:14.874Z,1.10
2022-11-15T01:47:40.143Z,0.23
2022-11-15T01:53:00.798Z,0.90
2022-11-15T01:58:21.329Z,0.20
2022-11-15T02:03:57.682Z,2.90
2022-11-15T02:09:18.217Z,0.63
2022-11-15T02:14:43.364Z,0.30
2022-11-15T02:20:29.215Z,1.57
2022-11-15T02:26:30.019Z,0.53
2022-11-15T02:32:16.004Z,0.60
2022-11-15T02:37:48.135Z,0.23
2022-11-15T02:43:30.208Z,2.53
2022-11-15T02:48:51.793Z,0.40
2022-11-15T02:54:16.507Z,0.70
2022-11-15T02:59:52.306Z,0.30
2022-11-15T03:05:30.607Z,1.50
2022-11-15T03:10:57.211Z,0.20
2022-11-15T03:16:20.494Z,1.27
2022-11-15T03:21:42.134Z,0.20
2022-11-15T03:27:04.166Z,2.53
2022-11-15T03:32:30.961Z,3.10
2022-11-15T03:38:24.360Z,1.30
2022-11-15T03:44:05.468Z,2.15
2022-11-15T03:49:37.542Z,0.20
2022-11-15T03:55:01.030Z,0.20
2022-11-15T04:00:21.563Z,1.10
2022-11-15T04:05:42.258Z,0.20
2022-11-15T04:11:02.786Z,0.20
2022-11-15T04:16:23.023Z,0.67
2022-11-15T04:22:02.023Z,0.80
2022-11-15T04:27:22.562Z,0.37
2022-11-15T04:32:42.833Z,0.20
2022-11-15T04:38:04.415Z,1.70
2022-11-15T04:43:24.869Z,0.20
2022-11-15T04:48:45.105Z,1.87
2022-11-15T04:54:05.267Z,0.60
2022-11-15T04:59:25.894Z,0.20
2022-11-15T05:04:46.121Z,1.03
2022-11-15T05:10:06.886Z,0.20
2022-11-15T05:15:27.316Z,0.30
2022-11-15T05:20:47.689Z,0.20
2022-11-15T05:26:11.666Z,0.20
2022-11-15T05:31:32.272Z,1.73
2022-11-15T05:36:52.707Z,0.63
2022-11-15T05:42:16.155Z,0.80
2022-11-15T05:47:39.417Z,0.65
2022-11-15T05:53:04.934Z,1.20
2022-11-15T05:58:25.676Z,1.33
2022-11-15T06:03:45.969Z,0.20
2022-11-15T06:09:06.175Z,1.03
2022-11-15T06:14:26.390Z,0.47
2022-11-15T06:19:46.665Z,0.27
2022-11-15T06:25:07.798Z,0.20
2022-11-15T06:30:28.446Z,0.30
2022-11-15T06:35:48.823Z,0.20
2022-11-15T06:41:10.783Z,1.33
2022-11-15T06:46:31.406Z,0.60
2022-11-15T06:51:52.051Z,1.13
2022-11-15T06:57:12.846Z,0.30
2022-11-15T07:02:33.392Z,0.40
2022-11-15T07:07:55.271Z,0.60
2022-11-15T07:13:15.622Z,1.60
2022-11-15T07:18:37.123Z,0.70
2022-11-15T07:23:57.379Z,0.30
2022-11-15T07:29:17.669Z,1.57
2022-11-15T07:34:39.245Z,1.43
2022-11-15T07:40:03.861Z,0.87
2022-11-15T07:45:27.520Z,3.80
2022-11-15T07:56:10.547Z,0.30
2022-11-15T08:01:30.961Z,0.30
2022-11-15T08:06:51.657Z,1.73
2022-11-15T08:12:12.171Z,1.20
2022-11-15T08:17:33.820Z,1.53
2022-11-15T08:22:54.375Z,0.70
2022-11-15T08:28:17.174Z,0.33
2022-11-15T08:33:37.852Z,0.17
2022-11-15T08:38:58.456Z,0.20
2022-11-15T08:44:18.515Z,0.53
2022-11-15T08:49:38.643Z,1.50
2022-11-15T08:54:59.029Z,0.30
2022-11-15T09:00:20.989Z,1.67
2022-11-15T09:05:41.754Z,2.50
2022-11-15T09:11:10.248Z,1.73
2022-11-15T09:16:32.279Z,0.40
2022-11-15T09:21:52.549Z,0.83
2022-11-15T09:27:14.218Z,1.97
2022-11-15T09:32:39.077Z,0.67
2022-11-15T09:38:00.039Z,3.47
2022-11-15T09:43:39.123Z,4.07
2022-11-15T09:49:01.479Z,2.17
2022-11-15T10:05:48.620Z,0.87
2022-11-15T10:11:30.486Z,2.73
2022-11-15T10:16:48.211Z,1.83
2022-11-15T10:21:57.838Z,0.63
2022-11-15T10:26:59.623Z,0.60
2022-11-15T10:32:01.432Z,1.63
2022-11-15T10:37:03.386Z,0.43
2022-11-15T10:42:28.816Z,0.20
2022-11-15T10:47:38.841Z,3.27
2022-11-15T10:52:47.056Z,1.13
2022-11-15T10:58:00.490Z,2.97
2022-11-15T11:03:22.210Z,2.40
2022-11-15T11:08:25.706Z,0.73
2022-11-15T11:13:30.054Z,5.30
2022-11-15T11:18:50.920Z,2.87
2022-11-15T11:24:05.568Z,1.27
2022-11-15T11:29:22.405Z,1.53
2022-11-15T11:34:30.426Z,1.07
2022-11-15T11:39:43.069Z,2.47
2022-11-15T11:45:10.822Z,0.75
2022-11-15T11:50:23.997Z,4.30
2022-11-15T11:55:29.246Z,5.40
2022-11-15T12:00:36.241Z,2.13
2022-11-15T12:05:45.393Z,1.63
2022-11-15T12:10:54.238Z,1.43
2022-11-15T12:16:28.718Z,2.33
2022-11-15T12:22:04.209Z,5.47
2022-11-15T12:27:20.668Z,4.00
2022-11-15T12:32:31.485Z,3.47
2022-11-15T12:37:38.732Z,3.07
2022-11-15T12:42:59.488Z,0.77
2022-11-15T12:48:16.583Z,3.03
2022-11-15T12:53:27.790Z,2.73
2022-11-15T12:58:40.274Z,2.80
2022-11-15T13:04:19.820Z,3.05
2022-11-15T13:09:37.044Z,3.83
2022-11-15T13:14:40.395Z,6.40
2022-11-15T13:19:42.332Z,0.77
2022-11-15T13:24:44.168Z,3.30
2022-11-15T13:29:46.048Z,3.23
2022-11-15T13:34:52.145Z,4.30
2022-11-15T13:39:54.563Z,14.30
2022-11-15T13:44:59.154Z,1.53
2022-11-15T13:50:02.113Z,2.37
2022-11-15T13:55:21.643Z,4.40
2022-11-15T14:00:41.165Z,4.13
2022-11-15T14:05:43.434Z,6.23
2022-11-15T14:10:46.300Z,4.47
2022-11-15T14:15:49.824Z,0.97
2022-11-15T14:21:08.275Z,2.47
2022-11-15T14:26:33.509Z,3.23
2022-11-15T14:31:41.098Z,5.83
2022-11-15T14:36:46.956Z,4.40
2022-11-15T14:41:49.860Z,5.13
2022-11-15T14:46:52.778Z,3.25
2022-11-15T14:51:55.557Z,2.35
2022-11-15T14:56:58.768Z,3.83
2022-11-15T15:02:01.994Z,3.53
2022-11-15T15:12:19.365Z,4.20
2022-11-15T15:17:27.978Z,9.77
2022-11-15T15:22:31.732Z,3.83
2022-11-15T15:27:34.997Z,3.93
2022-11-15T15:32:44.036Z,6.37
2022-11-15T15:37:48.917Z,1.83
2022-11-15T15:42:52.618Z,3.63
2022-11-15T15:47:55.845Z,7.10
2022-11-15T15:58:06.940Z,3.13
2022-11-15T16:03:23.778Z,3.43
2022-11-15T16:08:42.559Z,1.80
2022-11-15T16:13:57.315Z,6.57
2022-11-15T16:19:02.062Z,3.77
2022-11-15T16:24:05.881Z,6.57
2022-11-15T16:29:14.213Z,4.20
2022-11-15T16:34:17.420Z,22.97
2022-11-15T16:39:21.025Z,9.40
2022-11-15T16:44:25.363Z,12.43
2022-11-15T16:49:28.983Z,4.57
2022-11-15T16:54:35.568Z,5.40
2022-11-15T16:59:38.749Z,6.33
2022-11-15T17:04:41.760Z,9.95
2022-11-15T17:09:44.598Z,6.22
2022-11-15T17:14:47.501Z,4.18
2022-11-15T17:19:50.672Z,5.18
2022-11-15T17:24:53.393Z,9.17
2022-11-15T17:29:56.511Z,2.35
2022-11-15T17:40:01.875Z,3.13
2022-11-15T17:45:09.629Z,1.48
2022-11-15T17:50:12.798Z,3.57
2022-11-15T17:55:15.609Z,5.22
2022-11-15T18:00:21.168Z,2.95
2022-11-15T18:05:23.742Z,5.03
2022-11-15T18:10:26.458Z,1.60
2022-11-15T18:15:29.646Z,5.03
2022-11-15T18:20:33.056Z,24.70
2022-11-15T18:25:36.344Z,7.60
2022-11-15T18:35:49.018Z,4.83
2022-11-15T18:40:51.928Z,3.47
2022-11-15T18:45:54.955Z,4.03
2022-11-15T18:51:05.281Z,8.25
2022-11-15T18:56:11.596Z,3.77
2022-11-15T19:01:19.868Z,4.97
2022-11-15T19:06:29.668Z,24.63
2022-11-15T19:11:36.293Z,18.70
2022-11-15T19:16:41.615Z,20.47
2022-11-15T19:27:03.177Z,4.53
2022-11-15T19:32:07.720Z,16.17
2022-11-15T19:37:22.697Z,6.13
2022-11-15T19:42:42.907Z,8.43
2022-11-15T19:47:58.091Z,10.60
2022-11-15T19:53:15.541Z,20.83
2022-11-15T19:58:21.019Z,9.73
2022-11-15T20:08:48.338Z,11.17
2022-11-15T20:13:52.767Z,10.43
2022-11-15T20:19:28.516Z,9.80
2022-11-15T20:24:39.528Z,11.43
2022-11-15T20:29:44.986Z,9.37
2022-11-15T20:34:54.713Z,20.87
2022-11-15T20:39:58.351Z,10.83
2022-11-15T20:45:04.734Z,8.93
2022-11-15T20:50:35.393Z,12.30
2022-11-15T20:55:31.593Z,5.37
2022-11-15T21:00:37.572Z,10.10
2022-11-15T21:05:44.658Z,24.93
2022-11-15T21:11:10.633Z,19.07
2022-11-15T21:16:13.841Z,13.67
2022-11-15T21:21:16.908Z,9.00
2022-11-15T21:26:20.359Z,8.02
2022-11-15T21:31:23.732Z,3.87
2022-11-15T21:36:27.091Z,3.60
2022-11-15T21:41:34.044Z,5.87
2022-11-15T21:46:40.721Z,5.33
2022-11-15T21:57:19.499Z,5.33
2022-11-15T22:02:23.160Z,3.53
2022-11-15T22:07:26.416Z,5.53
2022-11-15T22:12:29.963Z,2.27
2022-11-15T22:17:51.317Z,6.70
2022-11-15T22:22:54.524Z,6.37
2022-11-15T22:27:57.640Z,5.72
2022-11-15T22:33:00.639Z,5.90
2022-11-15T22:38:03.913Z,3.92
2022-11-15T22:43:10.024Z,9.00
2022-11-15T22:48:13.123Z,4.80
2022-11-15T22:53:15.768Z,5.07
2022-11-15T22:58:19.008Z,3.17
2022-11-15T23:03:23.184Z,6.17
2022-11-15T23:08:25.302Z,4.60
2022-11-15T23:13:29.242Z,4.90
2022-11-15T23:18:36.146Z,3.33
2022-11-15T23:23:38.870Z,3.63
2022-11-15T23:28:40.698Z,8.77
2022-11-15T23:33:57.464Z,3.83
2022-11-15T23:38:59.397Z,6.33
2022-11-15T23:44:01.392Z,11.00
2022-11-15T23:49:03.582Z,5.27
2022-11-15T23:54:05.943Z,6.07
2022-11-15T23:59:08.098Z,6.33
